Time;durP1;ratioP1;P1;durP2;ratioP2;P2;SDS_P1;SDS_P2;PMS_P1;PMS_P2;Temp;Humidity;BMP_temperature;BMP_pressure;BME280_temperature;BME280_humidity;BME280_pressure;Samples;Min_cycle;Max_cycle;Signal;HPM_P1;HPM_P2
2021/07/02 00:01:53;;;;;;;8.90;5.72;;;16.50;99.90;;;;;;5077688;28;20020;-71
2021/07/02 00:04:19;;;;;;;9.77;5.60;;;16.40;99.90;;;;;;5078555;28;20386;-69
2021/07/02 00:06:44;;;;;;;10.32;6.00;;;16.40;99.90;;;;;;5079419;28;20032;-69
2021/07/02 00:09:10;;;;;;;9.88;6.75;;;16.40;99.90;;;;;;5068723;28;20429;-68
2021/07/02 00:11:36;;;;;;;9.27;6.53;;;16.40;99.90;;;;;;5070238;28;20020;-71
2021/07/02 00:14:03;;;;;;;7.63;5.82;;;16.50;99.90;;;;;;5069226;28;20028;-75
2021/07/02 00:16:29;;;;;;;10.23;6.05;;;16.50;99.90;;;;;;5070312;28;20480;-68
2021/07/02 00:18:55;;;;;;;10.05;6.80;;;16.50;99.90;;;;;;5069980;28;20028;-67
2021/07/02 00:21:21;;;;;;;11.13;6.55;;;16.50;99.90;;;;;;5064048;28;20416;-68
2021/07/02 00:23:46;;;;;;;9.45;6.78;;;16.40;99.90;;;;;;5051196;28;20466;-68
2021/07/02 00:26:12;;;;;;;11.55;6.72;;;16.40;99.90;;;;;;5032512;28;20033;-69
2021/07/02 00:28:38;;;;;;;9.10;6.80;;;16.30;99.90;;;;;;5051652;28;20075;-68
2021/07/02 00:31:03;;;;;;;13.43;7.28;;;16.30;99.90;;;;;;5032930;28;20029;-67
2021/07/02 00:33:29;;;;;;;9.73;6.97;;;16.20;99.90;;;;;;5051519;28;20364;-67
2021/07/02 00:35:54;;;;;;;9.77;6.63;;;16.20;99.90;;;;;;5050999;28;20035;-68
2021/07/02 00:38:20;;;;;;;10.13;6.88;;;16.20;99.90;;;;;;5032643;28;20506;-68
2021/07/02 00:40:46;;;;;;;11.23;6.43;;;16.30;99.90;;;;;;5051481;28;20036;-67
2021/07/02 00:43:11;;;;;;;10.20;6.30;;;16.30;99.90;;;;;;5050331;28;20046;-69
2021/07/02 00:45:37;;;;;;;10.25;6.70;;;16.20;99.90;;;;;;5050867;28;20056;-67
2021/07/02 00:48:04;;;;;;;14.30;7.38;;;16.20;99.90;;;;;;5033145;28;20125;-68
2021/07/02 00:50:30;;;;;;;10.05;6.63;;;16.20;99.90;;;;;;5051150;28;20458;-67
2021/07/02 00:52:56;;;;;;;12.23;6.50;;;16.20;99.90;;;;;;5051435;28;20025;-69
2021/07/02 00:55:22;;;;;;;8.90;6.35;;;16.20;99.90;;;;;;5050627;28;20029;-67
2021/07/02 00:57:48;;;;;;;10.20;6.47;;;16.10;99.90;;;;;;5051121;28;20107;-67
2021/07/02 01:00:14;;;;;;;9.55;6.50;;;16.10;99.90;;;;;;5050646;28;20143;-68
2021/07/02 01:02:40;;;;;;;9.82;6.50;;;16.00;99.90;;;;;;5050976;28;20181;-67
2021/07/02 01:05:07;;;;;;;11.98;6.30;;;16.10;99.90;;;;;;5032220;28;20041;-68
2021/07/02 01:07:33;;;;;;;10.55;6.45;;;16.00;99.90;;;;;;5050906;28;20036;-67
2021/07/02 01:10:00;;;;;;;14.23;7.60;;;16.00;99.90;;;;;;5033183;28;20075;-67
2021/07/02 01:12:27;;;;;;;11.80;6.55;;;16.00;99.90;;;;;;5050295;28;20037;-69
2021/07/02 01:14:53;;;;;;;12.98;6.95;;;16.00;99.90;;;;;;5033196;28;20036;-68
2021/07/02 01:17:18;;;;;;;10.27;6.25;;;16.10;99.90;;;;;;5032423;28;20183;-67
2021/07/02 01:19:53;;;;;;;12.00;6.50;;;16.10;99.90;;;;;;5050512;28;20025;-67
2021/07/02 01:22:27;;;;;;;11.52;7.35;;;16.10;99.90;;;;;;5057642;28;20053;-68
2021/07/02 01:24:54;;;;;;;9.60;6.70;;;16.10;99.90;;;;;;5069786;28;20067;-67
2021/07/02 01:27:20;;;;;;;11.45;7.95;;;16.00;99.90;;;;;;5068613;28;20024;-69
2021/07/02 01:29:47;;;;;;;10.15;7.50;;;16.00;99.90;;;;;;5070727;28;20074;-67
2021/07/02 01:32:15;;;;;;;10.07;6.63;;;16.00;99.90;;;;;;5070265;28;20116;-67
2021/07/02 01:34:41;;;;;;;11.65;7.35;;;15.90;99.90;;;;;;5070237;28;20025;-68
2021/07/02 01:37:08;;;;;;;9.63;6.65;;;15.90;99.90;;;;;;5068802;28;20385;-77
2021/07/02 01:39:37;;;;;;;11.88;6.32;;;16.00;99.90;;;;;;5069318;28;20028;-67
2021/07/02 01:42:06;;;;;;;11.43;7.03;;;16.00;99.90;;;;;;5070844;28;20024;-69
2021/07/02 01:44:32;;;;;;;9.13;7.55;;;15.90;99.90;;;;;;5070790;28;20109;-68
2021/07/02 01:46:58;;;;;;;10.25;6.80;;;15.90;99.90;;;;;;5072427;28;20180;-68
2021/07/02 01:49:23;;;;;;;10.48;7.07;;;15.90;99.90;;;;;;5074118;28;20109;-68
2021/07/02 01:51:49;;;;;;;11.55;6.50;;;15.90;99.90;;;;;;5072849;28;20029;-68
2021/07/02 01:54:15;;;;;;;10.68;7.75;;;15.90;99.90;;;;;;5072451;28;20032;-68
2021/07/02 01:56:47;;;;;;;11.52;7.88;;;15.90;99.90;;;;;;5073988;28;20024;-68
2021/07/02 01:59:15;;;;;;;8.93;6.97;;;15.90;99.90;;;;;;5073545;28;20138;-67
2021/07/02 02:01:41;;;;;;;11.45;8.27;;;15.90;99.90;;;;;;5074137;28;20067;-67
2021/07/02 02:04:07;;;;;;;12.80;8.23;;;15.80;99.90;;;;;;5072594;28;20454;-68
2021/07/02 02:06:33;;;;;;;13.18;8.10;;;15.80;99.90;;;;;;5073978;28;20042;-67
2021/07/02 02:08:58;;;;;;;10.18;7.03;;;15.80;99.90;;;;;;5072674;28;20119;-67
2021/07/02 02:11:24;;;;;;;12.40;8.00;;;15.80;99.90;;;;;;5073637;28;20043;-68
2021/07/02 02:13:50;;;;;;;16.50;9.35;;;15.80;99.90;;;;;;5073571;28;20484;-67
2021/07/02 02:16:15;;;;;;;14.25;7.95;;;15.90;99.90;;;;;;5071856;28;20127;-69
2021/07/02 02:18:41;;;;;;;14.27;8.13;;;15.80;99.90;;;;;;5072200;28;20048;-67
2021/07/02 02:21:06;;;;;;;17.10;9.13;;;15.90;99.90;;;;;;5068988;28;20084;-68
2021/07/02 02:23:32;;;;;;;13.10;8.60;;;15.80;99.90;;;;;;5053645;28;20378;-67
2021/07/02 02:25:58;;;;;;;14.73;8.70;;;15.80;99.90;;;;;;5053966;28;20044;-69
2021/07/02 02:28:23;;;;;;;13.85;8.23;;;15.80;99.90;;;;;;5052873;28;20037;-69
2021/07/02 02:30:49;;;;;;;10.55;7.10;;;15.80;99.90;;;;;;5035684;28;20411;-69
2021/07/02 02:33:14;;;;;;;14.05;9.40;;;15.80;99.90;;;;;;5034823;28;20032;-66
2021/07/02 02:35:40;;;;;;;12.73;8.93;;;15.70;99.90;;;;;;5053551;28;20072;-69
2021/07/02 02:38:07;;;;;;;11.50;7.65;;;15.80;99.90;;;;;;5053467;28;20029;-68
2021/07/02 02:40:33;;;;;;;12.45;9.07;;;15.80;99.90;;;;;;5034834;28;20528;-68
2021/07/02 02:42:59;;;;;;;15.68;9.43;;;15.90;99.90;;;;;;5035608;28;20061;-68
2021/07/02 02:45:25;;;;;;;15.27;8.70;;;15.90;99.90;;;;;;5052648;28;20060;-67
2021/07/02 02:47:50;;;;;;;13.85;8.43;;;15.90;99.90;;;;;;5035368;28;20029;-67
2021/07/02 02:50:16;;;;;;;12.45;8.27;;;15.90;99.90;;;;;;5034699;28;20029;-68
2021/07/02 02:52:42;;;;;;;13.38;8.50;;;15.80;99.90;;;;;;5035254;28;20071;-67
2021/07/02 02:55:08;;;;;;;13.82;8.25;;;15.80;99.90;;;;;;5053227;28;20033;-68
2021/07/02 02:57:34;;;;;;;12.02;7.55;;;15.90;99.90;;;;;;5051324;28;20466;-68
2021/07/02 02:59:59;;;;;;;14.85;8.88;;;15.90;99.90;;;;;;5035148;28;20032;-67
2021/07/02 03:02:25;;;;;;;10.55;7.72;;;15.90;99.90;;;;;;5034083;28;20067;-67
2021/07/02 03:04:53;;;;;;;14.98;9.77;;;15.80;99.90;;;;;;5034939;28;20029;-67
2021/07/02 03:07:19;;;;;;;11.82;8.70;;;15.80;99.90;;;;;;5052357;28;20036;-68
2021/07/02 03:09:45;;;;;;;15.60;8.75;;;15.80;99.90;;;;;;5034776;28;20021;-67
2021/07/02 03:12:11;;;;;;;11.35;8.32;;;15.80;99.90;;;;;;5034702;28;20539;-68
2021/07/02 03:14:36;;;;;;;15.43;8.98;;;15.80;99.90;;;;;;5052229;28;20025;-69
2021/07/02 03:17:02;;;;;;;16.50;9.07;;;15.70;99.90;;;;;;5052412;28;20071;-67
2021/07/02 03:19:28;;;;;;;14.43;7.43;;;15.80;99.90;;;;;;5052069;28;20063;-67
2021/07/02 03:21:53;;;;;;;15.18;8.77;;;15.90;99.90;;;;;;5052639;28;20497;-67
2021/07/02 03:24:19;;;;;;;15.30;8.57;;;15.90;99.90;;;;;;5033790;28;20454;-67
2021/07/02 03:26:45;;;;;;;13.32;8.38;;;15.80;99.90;;;;;;5034646;28;20393;-67
2021/07/02 03:29:11;;;;;;;12.70;8.82;;;15.80;99.90;;;;;;5052373;28;20025;-67
2021/07/02 03:31:37;;;;;;;13.07;8.30;;;15.80;99.90;;;;;;5033811;28;20436;-66
2021/07/02 03:34:03;;;;;;;16.85;9.07;;;15.80;99.90;;;;;;5052229;28;20115;-67
2021/07/02 03:36:28;;;;;;;13.98;9.02;;;15.80;99.90;;;;;;5033671;28;20377;-68
2021/07/02 03:38:54;;;;;;;12.57;8.52;;;15.80;99.90;;;;;;5034294;28;20029;-67
2021/07/02 03:41:20;;;;;;;14.15;8.00;;;15.90;99.90;;;;;;5051301;28;20033;-67
2021/07/02 03:43:45;;;;;;;12.63;8.88;;;15.90;99.90;;;;;;5034292;28;20268;-67
2021/07/02 03:46:11;;;;;;;14.05;8.52;;;15.90;99.90;;;;;;5034298;28;20470;-68
2021/07/02 03:48:37;;;;;;;14.00;9.18;;;15.90;99.90;;;;;;5047206;28;20029;-68
2021/07/02 03:51:02;;;;;;;11.50;8.15;;;15.90;99.90;;;;;;5054120;28;20095;-67
2021/07/02 03:53:29;;;;;;;10.43;8.00;;;15.80;99.90;;;;;;5034550;28;20029;-68
2021/07/02 03:55:55;;;;;;;14.18;8.90;;;15.90;99.90;;;;;;5034038;28;20067;-68
2021/07/02 03:58:20;;;;;;;13.35;8.15;;;15.90;99.90;;;;;;5033292;28;20044;-69
2021/07/02 04:00:46;;;;;;;13.85;9.32;;;15.90;99.90;;;;;;5033974;28;20025;-67
2021/07/02 04:03:13;;;;;;;17.52;8.57;;;16.00;99.90;;;;;;5051677;28;20083;-67
2021/07/02 04:05:43;;;;;;;14.57;8.07;;;15.90;99.90;;;;;;5032958;28;20073;-70
2021/07/02 04:08:09;;;;;;;14.80;8.23;;;15.90;99.90;;;;;;5051647;28;20351;-67
2021/07/02 04:10:34;;;;;;;13.70;8.57;;;16.00;99.90;;;;;;5033191;28;20029;-68
2021/07/02 04:13:00;;;;;;;13.95;8.68;;;15.90;99.90;;;;;;5033857;28;20131;-67
2021/07/02 04:15:25;;;;;;;19.50;8.85;;;15.90;99.90;;;;;;5050846;28;20090;-68
2021/07/02 04:17:51;;;;;;;16.23;9.57;;;15.90;99.90;;;;;;5033438;28;20485;-67
2021/07/02 04:20:17;;;;;;;13.43;9.55;;;16.00;99.90;;;;;;5032629;28;20021;-71
2021/07/02 04:22:42;;;;;;;16.75;9.18;;;16.00;99.90;;;;;;5051386;28;20500;-68
2021/07/02 04:25:10;;;;;;;12.45;8.18;;;15.90;99.90;;;;;;5051086;28;20063;-69
2021/07/02 04:27:36;;;;;;;14.05;9.85;;;15.90;99.90;;;;;;5050719;28;20092;-69
2021/07/02 04:30:03;;;;;;;14.38;8.15;;;15.90;99.90;;;;;;5033253;28;20031;-68
2021/07/02 04:32:29;;;;;;;15.88;9.23;;;15.90;99.90;;;;;;5032659;28;20021;-68
2021/07/02 04:34:55;;;;;;;13.02;9.05;;;16.00;99.90;;;;;;5033125;28;20036;-67
2021/07/02 04:37:20;;;;;;;13.98;9.63;;;16.00;99.90;;;;;;5032681;28;20028;-68
2021/07/02 04:39:46;;;;;;;16.15;9.45;;;16.10;99.90;;;;;;5033309;28;20062;-68
2021/07/02 04:42:12;;;;;;;17.73;9.32;;;16.00;99.90;;;;;;5051224;28;20386;-69
2021/07/02 04:44:38;;;;;;;17.17;9.10;;;16.10;99.90;;;;;;5032145;28;20419;-68
2021/07/02 04:47:04;;;;;;;16.27;9.45;;;16.20;99.90;;;;;;5033044;28;20377;-68
2021/07/02 04:49:30;;;;;;;12.60;9.57;;;16.20;99.90;;;;;;5032249;28;20136;-69
2021/07/02 04:51:56;;;;;;;19.67;9.00;;;16.20;99.90;;;;;;5032303;28;20115;-68
2021/07/02 04:54:22;;;;;;;16.08;9.13;;;16.20;99.90;;;;;;5031902;28;20033;-68
2021/07/02 04:56:47;;;;;;;17.67;9.05;;;16.30;99.90;;;;;;5050164;28;20021;-68
2021/07/02 04:59:14;;;;;;;12.10;7.63;;;16.50;99.90;;;;;;5032567;28;20033;-68
2021/07/02 05:01:40;;;;;;;12.48;8.35;;;16.60;99.90;;;;;;5049805;28;20025;-69
2021/07/02 05:04:05;;;;;;;11.57;8.57;;;16.70;99.90;;;;;;5050590;28;20021;-68
2021/07/02 05:06:33;;;;;;;13.02;8.38;;;16.80;99.90;;;;;;5049464;28;20044;-68
2021/07/02 05:08:59;;;;;;;10.75;7.30;;;16.90;99.90;;;;;;5032197;28;20068;-68
2021/07/02 05:11:24;;;;;;;17.42;8.52;;;16.90;99.90;;;;;;5049962;28;20198;-69
2021/07/02 05:13:50;;;;;;;12.85;7.45;;;16.90;99.90;;;;;;5038911;28;20112;-67
2021/07/02 05:16:16;;;;;;;15.30;8.20;;;17.10;99.90;;;;;;5050688;28;20361;-68
2021/07/02 05:18:41;;;;;;;17.60;8.75;;;17.20;99.90;;;;;;5069638;28;20083;-67
2021/07/02 05:21:07;;;;;;;15.68;7.82;;;17.20;99.90;;;;;;5059546;28;20055;-67
2021/07/02 05:23:33;;;;;;;13.88;8.35;;;17.30;99.90;;;;;;5094504;28;20032;-67
2021/07/02 05:26:00;;;;;;;31.60;10.85;;;17.10;99.90;;;;;;5093278;28;20040;-66
2021/07/02 05:28:26;;;;;;;15.93;9.57;;;17.20;99.90;;;;;;5092461;28;20028;-68
2021/07/02 05:30:51;;;;;;;11.65;8.05;;;17.20;99.90;;;;;;5093112;28;20027;-70
2021/07/02 05:33:17;;;;;;;25.08;10.20;;;17.30;99.90;;;;;;5093123;28;20453;-65
2021/07/02 05:35:43;;;;;;;14.57;10.13;;;17.60;99.90;;;;;;5093590;28;20038;-66
2021/07/02 05:38:09;;;;;;;13.57;7.50;;;17.80;99.90;;;;;;5092958;28;20024;-64
2021/07/02 05:40:35;;;;;;;15.63;5.60;;;18.00;99.90;;;;;;5094012;28;20028;-64
2021/07/02 05:43:01;;;;;;;11.88;6.18;;;18.40;99.90;;;;;;5091709;28;20085;-66
2021/07/02 05:45:26;;;;;;;8.82;6.63;;;19.10;99.90;;;;;;5090849;28;20036;-65
2021/07/02 05:47:58;;;;;;;9.30;6.53;;;19.40;99.90;;;;;;5090815;28;20461;-64
2021/07/02 05:50:24;;;;;;;12.38;6.43;;;19.80;99.90;;;;;;5092548;28;20035;-66
2021/07/02 05:52:51;;;;;;;8.20;5.82;;;20.20;99.90;;;;;;5090725;28;20020;-63
2021/07/02 05:55:17;;;;;;;9.85;5.25;;;20.40;99.90;;;;;;5090867;28;20032;-64
2021/07/02 05:57:43;;;;;;;9.52;5.80;;;20.30;99.90;;;;;;5092616;28;20047;-64
2021/07/02 06:00:10;;;;;;;10.60;5.40;;;20.30;99.90;;;;;;5091170;28;20032;-65
2021/07/02 06:02:36;;;;;;;6.28;4.43;;;20.20;99.90;;;;;;5092136;28;20028;-64
2021/07/02 06:05:03;;;;;;;9.23;4.43;;;20.10;99.90;;;;;;5091944;28;20119;-63
2021/07/02 06:07:28;;;;;;;6.88;4.88;;;20.20;99.90;;;;;;5091754;28;20109;-65
2021/07/02 06:09:54;;;;;;;14.93;6.65;;;20.20;99.90;;;;;;5090753;28;20024;-66
2021/07/02 06:12:20;;;;;;;9.02;5.68;;;20.10;99.90;;;;;;5079325;28;20044;-65
2021/07/02 06:14:45;;;;;;;9.52;5.45;;;19.60;99.90;;;;;;5069974;28;20387;-66
2021/07/02 06:17:11;;;;;;;9.07;6.53;;;19.40;99.90;;;;;;5071376;28;20390;-66
2021/07/02 06:19:37;;;;;;;11.02;5.55;;;19.20;99.90;;;;;;5070635;28;20037;-66
2021/07/02 06:22:04;;;;;;;9.65;6.30;;;19.20;99.90;;;;;;5070080;28;20543;-64
2021/07/02 06:24:30;;;;;;;12.25;7.10;;;19.10;99.90;;;;;;5070924;28;20040;-64
2021/07/02 06:26:56;;;;;;;11.68;8.10;;;19.30;99.90;;;;;;5071264;28;20017;-67
2021/07/02 06:29:22;;;;;;;11.00;7.05;;;19.40;99.90;;;;;;5070377;28;20082;-77
2021/07/02 06:31:47;;;;;;;11.27;6.80;;;19.00;99.90;;;;;;5068886;28;20162;-64
2021/07/02 06:34:13;;;;;;;9.93;6.82;;;19.00;99.90;;;;;;5069522;28;20125;-66
2021/07/02 06:36:39;;;;;;;11.30;6.20;;;19.10;99.90;;;;;;5069458;28;20462;-65
2021/07/02 06:39:05;;;;;;;9.02;5.53;;;19.10;99.90;;;;;;5071156;28;20029;-68
2021/07/02 06:41:30;;;;;;;12.10;6.07;;;19.20;99.90;;;;;;5068792;28;20033;-65
2021/07/02 06:43:56;;;;;;;10.65;5.40;;;19.30;99.90;;;;;;5070783;28;20143;-64
2021/07/02 06:46:22;;;;;;;12.20;7.25;;;19.40;99.90;;;;;;5068956;28;20044;-77
2021/07/02 06:48:48;;;;;;;11.23;6.60;;;19.30;99.90;;;;;;5069419;28;20437;-66
2021/07/02 06:51:13;;;;;;;11.70;6.55;;;19.30;99.90;;;;;;5069361;28;20060;-63
2021/07/02 06:53:39;;;;;;;8.25;5.63;;;19.40;99.90;;;;;;5070159;28;20074;-66
2021/07/02 06:56:07;;;;;;;11.50;6.25;;;19.70;99.90;;;;;;5071005;28;20033;-64
2021/07/02 06:58:33;;;;;;;8.40;6.10;;;19.60;99.90;;;;;;5069127;28;20032;-66
2021/07/02 07:00:59;;;;;;;8.38;6.03;;;19.40;99.90;;;;;;5069389;28;20026;-64
2021/07/02 07:03:25;;;;;;;7.68;5.40;;;19.50;99.90;;;;;;5069005;28;20032;-65
2021/07/02 07:05:52;;;;;;;7.32;5.15;;;19.70;99.90;;;;;;5069552;28;20040;-64
2021/07/02 07:08:18;;;;;;;9.20;5.30;;;19.60;99.90;;;;;;5070904;28;20028;-65
2021/07/02 07:10:43;;;;;;;13.20;6.30;;;19.60;99.90;;;;;;5069984;28;20029;-64
2021/07/02 07:13:09;;;;;;;9.52;6.30;;;19.60;99.90;;;;;;5070637;28;20029;-64
2021/07/02 07:15:35;;;;;;;9.90;6.03;;;19.60;99.90;;;;;;5068586;28;20173;-67
2021/07/02 07:18:01;;;;;;;9.75;5.95;;;19.70;99.90;;;;;;5069033;28;20039;-64
2021/07/02 07:20:28;;;;;;;11.52;6.30;;;19.70;99.90;;;;;;5069852;28;20104;-64
2021/07/02 07:22:53;;;;;;;6.30;5.32;;;19.60;99.90;;;;;;5050783;28;20398;-63
2021/07/02 07:25:21;;;;;;;13.18;7.25;;;19.80;99.90;;;;;;5032099;28;20044;-63
2021/07/02 07:27:47;;;;;;;14.38;6.03;;;19.90;99.90;;;;;;5032087;28;20512;-65
2021/07/02 07:30:14;;;;;;;9.77;5.53;;;20.00;99.90;;;;;;5050182;28;20063;-65
2021/07/02 07:32:40;;;;;;;14.18;5.97;;;20.00;99.90;;;;;;5049189;28;20025;-64
2021/07/02 07:37:59;;;;;;;9.75;6.30;;;19.80;99.90;;;;;;5046378;28;20045;-64
2021/07/02 07:40:28;;;;;;;10.68;6.50;;;19.70;99.90;;;;;;5048862;28;20363;-63
2021/07/02 07:42:54;;;;;;;7.00;5.60;;;19.80;99.90;;;;;;5049299;28;20029;-65
2021/07/02 07:45:20;;;;;;;11.10;7.35;;;19.90;99.90;;;;;;5049643;28;20040;-65
2021/07/02 07:47:46;;;;;;;10.40;6.03;;;19.80;99.90;;;;;;5031102;28;20446;-65
2021/07/02 07:50:20;;;;;;;9.95;7.22;;;19.90;99.90;;;;;;5031417;28;20142;-66
2021/07/02 07:52:56;;;;;;;11.20;7.50;;;20.20;99.90;;;;;;5049041;28;20028;-68
2021/07/02 07:55:22;;;;;;;14.15;7.50;;;20.20;99.80;;;;;;5046603;28;20058;-71
2021/07/02 07:57:48;;;;;;;8.98;6.60;;;20.10;99.90;;;;;;5061729;28;20100;-68
2021/07/02 08:00:15;;;;;;;11.05;6.43;;;20.30;99.90;;;;;;5040772;28;20124;-67
2021/07/02 08:02:40;;;;;;;8.43;6.28;;;20.30;99.70;;;;;;5035386;28;20032;-64
2021/07/02 08:05:06;;;;;;;13.40;6.75;;;20.30;99.80;;;;;;5039313;28;20029;-67
2021/07/02 08:07:36;;;;;;;10.02;6.55;;;20.30;99.90;;;;;;5055298;28;20467;-67
2021/07/02 08:10:05;;;;;;;9.20;5.70;;;20.30;99.80;;;;;;5038437;28;20028;-68
2021/07/02 08:12:30;;;;;;;10.27;6.50;;;20.50;99.10;;;;;;5040227;28;20033;-66
2021/07/02 08:14:56;;;;;;;12.50;6.45;;;20.80;98.50;;;;;;5059766;28;20045;-67
2021/07/02 08:17:23;;;;;;;8.05;6.50;;;20.60;98.00;;;;;;5033834;28;20521;-71
2021/07/02 08:19:49;;;;;;;10.88;6.22;;;20.60;98.60;;;;;;5035049;28;20127;-67
2021/07/02 08:22:14;;;;;;;8.80;6.68;;;20.80;98.50;;;;;;5054959;28;20083;-67
2021/07/02 08:24:40;;;;;;;10.60;6.53;;;20.70;98.10;;;;;;5067979;28;20466;-70
2021/07/02 08:27:08;;;;;;;11.95;6.78;;;20.60;99.00;;;;;;5066436;28;20024;-71
2021/07/02 08:29:33;;;;;;;16.77;6.20;;;20.90;99.30;;;;;;5066926;28;20044;-69
2021/07/02 08:31:59;;;;;;;8.18;5.57;;;21.00;97.90;;;;;;5066085;28;20468;-69
2021/07/02 08:34:25;;;;;;;9.23;6.20;;;21.30;97.60;;;;;;5070194;28;20114;-74
2021/07/02 08:36:52;;;;;;;9.02;6.05;;;21.20;96.80;;;;;;5068817;28;20024;-69
2021/07/02 08:39:18;;;;;;;9.23;5.53;;;20.90;97.30;;;;;;5068449;28;20048;-69
2021/07/02 08:41:44;;;;;;;10.00;5.22;;;21.00;97.80;;;;;;5065752;28;20095;-68
2021/07/02 08:44:09;;;;;;;6.43;4.68;;;21.10;97.00;;;;;;5074494;28;20028;-71
2021/07/02 08:46:37;;;;;;;9.38;5.28;;;21.30;96.50;;;;;;5075318;28;20024;-70
2021/07/02 08:49:04;;;;;;;8.00;4.95;;;21.70;95.90;;;;;;5074822;28;20078;-70
2021/07/02 08:51:31;;;;;;;9.18;4.85;;;22.00;95.00;;;;;;5069076;28;20050;-69
2021/07/02 08:53:58;;;;;;;7.55;5.47;;;22.20;94.90;;;;;;5077137;28;20122;-69
2021/07/02 08:56:24;;;;;;;8.25;5.40;;;22.30;95.40;;;;;;5075240;28;20501;-67
2021/07/02 08:58:50;;;;;;;8.27;5.25;;;22.70;95.40;;;;;;5076578;28;20055;-66
2021/07/02 09:01:34;;;;;;;8.00;5.03;;;22.60;94.60;;;;;;5074937;28;20498;-68
2021/07/02 09:04:23;;;;;;;12.02;5.13;;;22.60;94.40;;;;;;5077798;28;20052;-66
2021/07/02 09:07:10;;;;;;;17.58;6.53;;;22.60;94.50;;;;;;5077273;28;20046;-68
2021/07/02 09:09:48;;;;;;;13.82;5.22;;;22.40;97.50;;;;;;5078462;28;20100;-67
2021/07/02 09:12:15;;;;;;;5.30;4.10;;;22.60;96.00;;;;;;5077616;28;20047;-72
2021/07/02 09:15:08;;;;;;;5.30;4.30;;;22.70;94.40;;;;;;5074457;28;20020;-69
2021/07/02 09:17:55;;;;;;;7.70;4.25;;;22.40;91.70;;;;;;5077181;28;20028;-68
2021/07/02 09:20:35;;;;;;;8.48;5.38;;;22.30;93.10;;;;;;5086752;28;20028;-67
2021/07/02 09:23:06;;;;;;;10.52;5.65;;;22.60;93.60;;;;;;5082036;28;20059;-67
2021/07/02 09:25:47;;;;;;;13.88;6.65;;;23.20;92.50;;;;;;5085817;28;20052;-67
2021/07/02 09:28:18;;;;;;;5.78;4.03;;;23.40;90.70;;;;;;5086064;28;20031;-66
2021/07/02 09:30:49;;;;;;;8.25;5.13;;;23.50;89.90;;;;;;5088042;28;20032;-73
2021/07/02 09:33:18;;;;;;;8.98;4.55;;;23.80;90.90;;;;;;5088617;28;20020;-68
2021/07/02 09:35:51;;;;;;;19.70;6.80;;;24.20;90.80;;;;;;5071585;28;20082;-70
2021/07/02 09:38:19;;;;;;;13.60;5.47;;;24.40;94.50;;;;;;5066977;28;20070;-69
2021/07/02 09:40:47;;;;;;;13.27;5.70;;;24.20;93.20;;;;;;5066137;28;20635;-67
2021/07/02 09:43:18;;;;;;;10.38;6.00;;;23.70;94.70;;;;;;5067573;28;20028;-68
2021/07/02 09:45:47;;;;;;;7.05;4.72;;;23.60;94.40;;;;;;5066032;28;20028;-68
2021/07/02 09:48:15;;;;;;;10.77;6.72;;;23.50;91.10;;;;;;5066552;28;20052;-68
2021/07/02 09:50:44;;;;;;;7.32;5.38;;;23.70;90.10;;;;;;5065562;28;20036;-70
2021/07/02 09:53:10;;;;;;;7.63;6.25;;;24.00;90.00;;;;;;5066358;28;20025;-66
2021/07/02 09:55:45;;;;;;;8.43;6.28;;;24.30;88.10;;;;;;5065682;28;20594;-65
2021/07/02 09:58:35;;;;;;;8.18;5.63;;;24.60;87.90;;;;;;5066493;28;20024;-66
2021/07/02 10:01:02;;;;;;;7.75;4.32;;;25.00;87.10;;;;;;5066446;28;20124;-67
2021/07/02 10:03:29;;;;;;;9.13;5.05;;;25.20;84.70;;;;;;5065958;28;20039;-68
2021/07/02 10:06:00;;;;;;;18.35;4.97;;;25.50;85.20;;;;;;5067926;28;20130;-67
2021/07/02 10:08:28;;;;;;;9.32;5.45;;;25.50;83.30;;;;;;5071045;28;20088;-67
2021/07/02 10:10:55;;;;;;;7.88;6.03;;;25.50;82.20;;;;;;5070229;28;20115;-66
2021/07/02 10:13:24;;;;;;;8.68;5.38;;;25.90;81.80;;;;;;5071765;28;20161;-67
2021/07/02 10:15:51;;;;;;;7.13;4.80;;;26.00;79.00;;;;;;5071712;28;20029;-68
2021/07/02 10:18:17;;;;;;;17.60;11.35;;;25.70;79.50;;;;;;5070288;28;20059;-66
2021/07/02 10:20:44;;;;;;;10.05;5.47;;;25.30;80.00;;;;;;5069218;28;20044;-68
2021/07/02 10:23:12;;;;;;;8.77;4.75;;;25.40;78.90;;;;;;5051710;28;20067;-66
2021/07/02 10:25:42;;;;;;;5.78;4.13;;;24.80;78.60;;;;;;5050631;28;20033;-67
2021/07/02 10:28:12;;;;;;;8.07;4.60;;;24.50;79.30;;;;;;5051081;28;20458;-67
2021/07/02 10:30:39;;;;;;;6.25;4.53;;;24.10;80.40;;;;;;5032052;28;20121;-67
2021/07/02 10:33:05;;;;;;;5.90;4.45;;;23.70;82.00;;;;;;5050693;28;20478;-69
2021/07/02 10:35:33;;;;;;;6.10;4.43;;;23.40;85.20;;;;;;5031854;28;20111;-65
2021/07/02 10:38:00;;;;;;;12.65;5.78;;;23.30;83.70;;;;;;5032372;28;20029;-66
2021/07/02 10:40:35;;;;;;;7.68;6.07;;;23.30;85.60;;;;;;5031257;28;20407;-74
2021/07/02 10:43:12;;;;;;;5.22;4.68;;;23.50;84.60;;;;;;5058244;28;20051;-69
2021/07/02 10:45:58;;;;;;;10.65;9.07;;;23.40;84.10;;;;;;5069279;28;20098;-68
2021/07/02 10:48:50;;;;;;;8.25;5.10;;;23.40;85.30;;;;;;5069773;28;20051;-74
2021/07/02 10:51:45;;;;;;;14.35;8.65;;;24.00;83.20;;;;;;5051974;28;20028;-69
2021/07/02 10:54:13;;;;;;;12.60;9.50;;;24.60;81.30;;;;;;5030843;28;20115;-68
2021/07/02 10:56:57;;;;;;;5.85;4.90;;;25.00;82.30;;;;;;5051497;28;20052;-69
2021/07/02 10:59:38;;;;;;;8.10;5.50;;;25.70;81.80;;;;;;5070003;28;20054;-70
2021/07/02 11:02:07;;;;;;;11.80;8.45;;;26.50;81.50;;;;;;5050483;28;20120;-67
2021/07/02 11:04:37;;;;;;;6.93;3.78;;;26.60;78.20;;;;;;5031407;28;20040;-67
2021/07/02 11:07:25;;;;;;;8.75;6.10;;;26.40;76.40;;;;;;5032189;28;20454;-68
2021/07/02 11:09:55;;;;;;;4.47;3.50;;;26.60;77.60;;;;;;5050173;28;20021;-67
2021/07/02 11:12:24;;;;;;;4.85;4.10;;;27.00;74.50;;;;;;5031991;28;20021;-67
2021/07/02 11:14:53;;;;;;;4.65;3.85;;;26.50;74.10;;;;;;5055169;28;20151;-67
2021/07/02 11:17:32;;;;;;;5.53;4.60;;;26.40;72.40;;;;;;5033459;28;20025;-68
2021/07/02 11:22:42;;;;;;;5.22;4.22;;;26.90;74.60;;;;;;5049689;28;20102;-66
2021/07/02 11:25:22;;;;;;;4.78;4.00;;;26.80;72.80;;;;;;5032631;28;20040;-66
2021/07/02 11:27:50;;;;;;;5.38;3.97;;;26.60;72.10;;;;;;5050329;28;20494;-67
2021/07/02 11:30:35;;;;;;;4.53;3.53;;;26.50;72.30;;;;;;5051196;28;20032;-68
2021/07/02 11:33:10;;;;;;;7.32;3.90;;;26.80;74.50;;;;;;5031182;28;20151;-68
2021/07/02 11:35:49;;;;;;;6.93;4.68;;;26.20;73.40;;;;;;5032226;28;20068;-69
2021/07/02 11:38:28;;;;;;;6.05;4.20;;;25.70;73.80;;;;;;5032204;28;20033;-66
2021/07/02 11:40:59;;;;;;;5.65;4.10;;;25.60;73.80;;;;;;5032249;28;20021;-68
2021/07/02 11:43:37;;;;;;;7.38;4.38;;;25.60;74.30;;;;;;5032105;28;20147;-74
2021/07/02 11:46:13;;;;;;;6.35;4.05;;;25.30;73.90;;;;;;5050202;28;20167;-68
2021/07/02 11:48:41;;;;;;;5.65;5.05;;;25.00;75.00;;;;;;5031345;28;20067;-67
2021/07/02 11:51:13;;;;;;;8.88;5.03;;;24.70;76.50;;;;;;5049584;28;20163;-66
2021/07/02 11:53:40;;;;;;;5.47;4.55;;;24.80;75.30;;;;;;5030786;28;20032;-67
2021/07/02 11:56:23;;;;;;;7.22;4.75;;;24.90;75.20;;;;;;5031463;28;20033;-65
2021/07/02 11:58:59;;;;;;;6.85;4.80;;;25.00;74.90;;;;;;5030571;28;20036;-68
2021/07/02 12:01:26;;;;;;;8.93;4.32;;;25.20;74.50;;;;;;5032240;28;20033;-67
2021/07/02 12:04:01;;;;;;;11.73;4.45;;;25.70;75.20;;;;;;5050698;28;20105;-66
2021/07/02 12:06:28;;;;;;;6.75;4.28;;;26.00;74.30;;;;;;5049688;28;20040;-68
2021/07/02 12:09:07;;;;;;;5.30;3.65;;;26.20;74.90;;;;;;5049721;28;20044;-68
2021/07/02 12:11:50;;;;;;;7.35;4.03;;;26.10;73.50;;;;;;5049089;28;20021;-66
2021/07/02 12:14:22;;;;;;;5.05;4.55;;;25.60;73.80;;;;;;5032413;28;20056;-66
2021/07/02 12:16:48;;;;;;;5.38;4.78;;;25.20;74.30;;;;;;5031841;28;20064;-65
2021/07/02 12:19:16;;;;;;;7.10;5.07;;;24.90;76.00;;;;;;5031750;28;20142;-66
2021/07/02 12:22:06;;;;;;;9.45;6.97;;;24.90;76.50;;;;;;5051235;28;20083;-66
2021/07/02 12:24:41;;;;;;;9.88;5.25;;;24.60;78.10;;;;;;5031572;28;20029;-66
2021/07/02 12:27:19;;;;;;;5.88;5.07;;;24.40;77.60;;;;;;5032373;28;20036;-66
2021/07/02 12:29:46;;;;;;;8.02;5.40;;;24.20;77.90;;;;;;5031036;28;20025;-67
2021/07/02 12:32:15;;;;;;;7.30;5.00;;;24.10;79.80;;;;;;5031721;28;20044;-65
2021/07/02 12:34:44;;;;;;;6.40;5.50;;;24.10;79.20;;;;;;5030978;28;20078;-65
2021/07/02 12:37:18;;;;;;;7.53;6.00;;;23.90;79.50;;;;;;5031629;28;20432;-65
2021/07/02 12:39:46;;;;;;;12.23;9.68;;;23.80;80.60;;;;;;5030830;28;20439;-66
2021/07/02 12:42:17;;;;;;;10.80;8.77;;;23.60;81.30;;;;;;5050362;28;20347;-66
2021/07/02 12:44:45;;;;;;;9.30;5.85;;;23.70;82.00;;;;;;5048801;28;20079;-66
2021/07/02 12:47:12;;;;;;;7.65;5.22;;;23.70;80.50;;;;;;5031022;28;20040;-66
2021/07/02 12:49:53;;;;;;;5.78;4.65;;;24.00;80.00;;;;;;5049384;28;20449;-65
2021/07/02 12:55:05;;;;;;;6.65;5.00;;;24.90;78.20;;;;;;5050271;28;20446;-68